Time;durP1;ratioP1;P1;durP2;ratioP2;P2;SDS_P1;SDS_P2;PMS_P1;PMS_P2;Temp;Humidity;BMP_temperature;BMP_pressure;BME280_temperature;BME280_humidity;BME280_pressure;Samples;Min_cycle;Max_cycle;Signal;HPM_P1;HPM_P2
2022/05/08 00:00:00;;;;;;;;;;;17.10;51.60;;;;;;2037021;28;19938;-71
2022/05/08 00:00:59;;;;;;;;;;;17.10;51.60;;;;;;2036835;28;19908;-71
2022/05/08 00:01:58;;;;;;;;;;;17.10;51.50;;;;;;2036330;28;20341;-70
2022/05/08 00:02:58;;;;;;;;;;;17.10;51.60;;;;;;2036685;28;19974;-71
2022/05/08 00:03:56;;;;;;;;;;;17.10;51.40;;;;;;2037162;28;19999;-70
2022/05/08 00:04:55;;;;;;;;;;;17.10;51.60;;;;;;2037210;28;20229;-72
2022/05/08 00:05:53;;;;;;;;;;;17.10;51.50;;;;;;2037060;28;20387;-71
2022/05/08 00:06:52;;;;;;;;;;;17.10;51.50;;;;;;2036981;28;19927;-71
2022/05/08 00:07:50;;;;;;;;;;;17.10;51.40;;;;;;2037228;28;20360;-71
2022/05/08 00:08:49;;;;;;;;;;;17.10;51.40;;;;;;2037195;28;20354;-71
2022/05/08 00:09:48;;;;;;;;;;;17.10;51.50;;;;;;2036954;28;20320;-71
2022/05/08 00:10:46;;;;;;;;;;;17.10;51.40;;;;;;2036980;28;20004;-71
2022/05/08 00:11:45;;;;;;;;;;;17.10;51.60;;;;;;2036987;28;19977;-71
2022/05/08 00:12:43;;;;;;;;;;;17.10;51.60;;;;;;2036993;28;20303;-71
2022/05/08 00:13:42;;;;;;;;;;;17.10;51.50;;;;;;2036963;28;19962;-71
2022/05/08 00:14:41;;;;;;;;;;;17.10;51.50;;;;;;2036238;28;19908;-71
2022/05/08 00:15:39;;;;;;;;;;;17.10;51.50;;;;;;2028376;28;20054;-71
2022/05/08 00:16:38;;;;;;;;;;;17.00;51.40;;;;;;2035836;28;19930;-71
2022/05/08 00:17:37;;;;;;;;;;;17.00;51.30;;;;;;2037115;28;20383;-71
2022/05/08 00:18:35;;;;;;;;;;;17.00;51.40;;;;;;2036985;28;19912;-72
2022/05/08 00:19:34;;;;;;;;;;;17.10;51.70;;;;;;2037016;28;19908;-71
2022/05/08 00:20:33;;;;;;;;;;;17.10;51.60;;;;;;2037033;28;19987;-71
2022/05/08 00:21:32;;;;;;;;;;;17.10;51.50;;;;;;2037097;28;19936;-71
2022/05/08 00:22:31;;;;;;;;;;;17.00;51.30;;;;;;2037212;28;20326;-71
2022/05/08 00:23:29;;;;;;;;;;;17.00;51.30;;;;;;2037085;28;19961;-71
2022/05/08 00:24:28;;;;;;;;;;;17.00;51.40;;;;;;2037003;28;20316;-71
2022/05/08 00:25:27;;;;;;;;;;;17.00;51.30;;;;;;2036961;28;19908;-70
2022/05/08 00:26:26;;;;;;;;;;;17.00;51.40;;;;;;2036307;28;19912;-71
2022/05/08 00:27:24;;;;;;;;;;;17.00;51.40;;;;;;2036587;28;19909;-70
2022/05/08 00:28:22;;;;;;;;;;;17.00;51.30;;;;;;2036205;28;20279;-71
2022/05/08 00:29:21;;;;;;;;;;;17.00;51.50;;;;;;2036328;28;19912;-71
2022/05/08 00:30:19;;;;;;;;;;;17.00;51.40;;;;;;2036863;28;19912;-70
2022/05/08 00:31:18;;;;;;;;;;;17.00;51.50;;;;;;2036768;28;19916;-70
2022/05/08 00:32:16;;;;;;;;;;;17.00;52.00;;;;;;2036716;28;19908;-70
2022/05/08 00:33:15;;;;;;;;;;;17.00;51.50;;;;;;2036905;28;19908;-71
2022/05/08 00:34:13;;;;;;;;;;;17.00;51.30;;;;;;2036914;28;19983;-70
2022/05/08 00:35:12;;;;;;;;;;;17.00;51.20;;;;;;2036777;28;19961;-70
2022/05/08 00:36:10;;;;;;;;;;;17.00;51.40;;;;;;2036810;28;20416;-70
2022/05/08 00:37:08;;;;;;;;;;;17.00;51.40;;;;;;2036035;28;19908;-71
2022/05/08 00:38:08;;;;;;;;;;;17.00;51.30;;;;;;2036274;28;20279;-70
2022/05/08 00:39:07;;;;;;;;;;;17.00;51.30;;;;;;2036244;28;19945;-71
2022/05/08 00:40:05;;;;;;;;;;;17.00;51.30;;;;;;2036273;28;19916;-71
2022/05/08 00:41:07;;;;;;;;;;;17.00;51.30;;;;;;2036801;28;19908;-71
2022/05/08 00:42:06;;;;;;;;;;;17.00;51.30;;;;;;2036735;28;19912;-71
2022/05/08 00:43:23;;;;;;;;;;;17.00;51.30;;;;;;2036684;28;19995;-71
2022/05/08 00:44:21;;;;;;;;;;;17.00;51.30;;;;;;2036962;28;20420;-71
2022/05/08 00:45:19;;;;;;;;;;;17.00;51.30;;;;;;2036804;28;19908;-72
2022/05/08 00:46:18;;;;;;;;;;;17.00;51.30;;;;;;2036803;28;19915;-70
2022/05/08 00:47:18;;;;;;;;;;;17.00;51.30;;;;;;2036751;28;19908;-70
2022/05/08 00:48:17;;;;;;;;;;;17.00;51.30;;;;;;2037099;28;19975;-71
2022/05/08 00:49:15;;;;;;;;;;;17.00;51.50;;;;;;2036855;28;19912;-70
2022/05/08 00:50:14;;;;;;;;;;;17.00;51.30;;;;;;2036900;28;20275;-70
2022/05/08 00:51:14;;;;;;;;;;;17.00;51.30;;;;;;2036771;28;20007;-70
2022/05/08 00:52:13;;;;;;;;;;;17.00;51.20;;;;;;2036789;28;19916;-70
2022/05/08 00:53:12;;;;;;;;;;;17.00;51.30;;;;;;2036838;28;20351;-70
2022/05/08 00:54:10;;;;;;;;;;;17.00;51.20;;;;;;2036773;28;19955;-70
2022/05/08 00:55:09;;;;;;;;;;;17.00;51.30;;;;;;2036297;28;19966;-70
2022/05/08 00:56:09;;;;;;;;;;;17.00;51.30;;;;;;2036258;28;20394;-71
2022/05/08 00:57:09;;;;;;;;;;;17.00;51.20;;;;;;2036742;28;19965;-71
2022/05/08 00:58:09;;;;;;;;;;;17.00;51.20;;;;;;2036939;28;19920;-71
2022/05/08 00:59:07;;;;;;;;;;;17.00;51.30;;;;;;2036953;28;19923;-71
2022/05/08 01:00:06;;;;;;;;;;;17.00;51.30;;;;;;2036806;28;20304;-71
2022/05/08 01:01:04;;;;;;;;;;;17.00;51.20;;;;;;2036986;28;19915;-71
2022/05/08 01:02:03;;;;;;;;;;;17.00;51.10;;;;;;2036748;28;19923;-70
2022/05/08 01:03:02;;;;;;;;;;;17.00;51.20;;;;;;2036694;28;19961;-71
2022/05/08 01:04:01;;;;;;;;;;;17.00;51.20;;;;;;2036642;28;19913;-71
2022/05/08 01:04:59;;;;;;;;;;;17.00;51.30;;;;;;2036712;28;20393;-71
2022/05/08 01:05:59;;;;;;;;;;;17.00;51.30;;;;;;2036694;28;19923;-71
2022/05/08 01:06:59;;;;;;;;;;;17.00;51.30;;;;;;2036543;28;19908;-71
2022/05/08 01:07:58;;;;;;;;;;;17.00;51.20;;;;;;2036711;28;19912;-71
2022/05/08 01:08:56;;;;;;;;;;;16.90;51.10;;;;;;2036613;28;19912;-71
2022/05/08 01:09:55;;;;;;;;;;;17.00;51.20;;;;;;2036697;28;19908;-70
2022/05/08 01:10:54;;;;;;;;;;;16.90;51.10;;;;;;2036635;28;19924;-71
2022/05/08 01:11:52;;;;;;;;;;;16.90;51.10;;;;;;2036882;28;19915;-71
2022/05/08 01:12:51;;;;;;;;;;;16.90;51.10;;;;;;2036864;28;19919;-70
2022/05/08 01:13:50;;;;;;;;;;;16.90;51.10;;;;;;2036662;28;20006;-70
2022/05/08 01:15:08;;;;;;;;;;;16.90;51.10;;;;;;2036129;28;19908;-70
2022/05/08 01:16:17;;;;;;;;;;;16.90;51.10;;;;;;2036000;28;19978;-72
2022/05/08 01:17:15;;;;;;;;;;;16.90;51.10;;;;;;2034936;28;19904;-70
2022/05/08 01:18:14;;;;;;;;;;;16.90;51.10;;;;;;2037036;28;19915;-71
2022/05/08 01:19:13;;;;;;;;;;;16.90;51.10;;;;;;2036895;28;19940;-71
2022/05/08 01:20:13;;;;;;;;;;;16.90;51.20;;;;;;2037389;28;19975;-70
2022/05/08 01:21:19;;;;;;;;;;;16.90;51.10;;;;;;2037094;28;19969;-70
2022/05/08 01:22:17;;;;;;;;;;;16.90;51.20;;;;;;2037091;28;20317;-70
2022/05/08 01:23:16;;;;;;;;;;;16.90;51.00;;;;;;2037340;28;20010;-70
2022/05/08 01:24:20;;;;;;;;;;;16.90;51.10;;;;;;2037679;28;19915;-70
2022/05/08 01:25:19;;;;;;;;;;;16.90;51.00;;;;;;2038695;28;20363;-71
2022/05/08 01:26:21;;;;;;;;;;;16.90;51.00;;;;;;2043923;28;19915;-71
2022/05/08 01:27:20;;;;;;;;;;;16.90;51.10;;;;;;2046539;28;19919;-71
2022/05/08 01:28:19;;;;;;;;;;;16.90;51.20;;;;;;2045535;28;19919;-71
2022/05/08 01:29:18;;;;;;;;;;;16.90;51.20;;;;;;2044523;28;19930;-71
2022/05/08 01:30:17;;;;;;;;;;;16.90;50.90;;;;;;2041309;28;19965;-71
2022/05/08 01:31:15;;;;;;;;;;;16.90;51.10;;;;;;2037791;28;20002;-71
2022/05/08 01:32:13;;;;;;;;;;;16.90;51.10;;;;;;2037636;28;20018;-71
2022/05/08 01:33:12;;;;;;;;;;;16.90;51.00;;;;;;2038385;28;19987;-71
2022/05/08 01:34:10;;;;;;;;;;;16.80;50.90;;;;;;2038207;28;19950;-70
2022/05/08 01:35:09;;;;;;;;;;;16.90;51.20;;;;;;2038196;28;19983;-70
2022/05/08 01:36:07;;;;;;;;;;;16.90;51.00;;;;;;2038391;28;19912;-70
2022/05/08 01:37:06;;;;;;;;;;;16.90;51.00;;;;;;2038067;28;19912;-70
2022/05/08 01:38:05;;;;;;;;;;;16.80;51.10;;;;;;2038354;28;19951;-70
2022/05/08 01:39:04;;;;;;;;;;;16.80;51.00;;;;;;2038179;28;19908;-71
2022/05/08 01:40:03;;;;;;;;;;;16.80;51.00;;;;;;2038061;28;19915;-70
2022/05/08 01:41:04;;;;;;;;;;;16.80;50.80;;;;;;2037480;28;19954;-70
2022/05/08 01:42:06;;;;;;;;;;;16.80;50.90;;;;;;2037550;28;19998;-70
2022/05/08 01:43:04;;;;;;;;;;;16.80;50.90;;;;;;2037274;28;20288;-71
2022/05/08 01:44:03;;;;;;;;;;;16.80;51.10;;;;;;2037513;28;19915;-70
2022/05/08 01:45:02;;;;;;;;;;;16.80;51.00;;;;;;2037815;28;20379;-71
2022/05/08 01:46:01;;;;;;;;;;;16.80;51.00;;;;;;2038092;28;19908;-70
2022/05/08 01:48:22;;;;;;;;;;;16.80;51.00;;;;;;2038084;28;20256;-71
2022/05/08 01:49:20;;;;;;;;;;;16.80;50.90;;;;;;2038125;28;19908;-71
2022/05/08 01:50:19;;;;;;;;;;;16.80;51.10;;;;;;2038024;28;19908;-71
2022/05/08 01:51:17;;;;;;;;;;;16.80;51.00;;;;;;2037793;28;19908;-71
2022/05/08 01:52:16;;;;;;;;;;;16.80;51.60;;;;;;2037911;28;19912;-71
2022/05/08 01:53:14;;;;;;;;;;;16.80;51.00;;;;;;2037935;28;20347;-71
2022/05/08 01:54:13;;;;;;;;;;;16.80;51.00;;;;;;2037874;28;19908;-70
2022/05/08 01:55:11;;;;;;;;;;;16.80;50.90;;;;;;2037237;28;19987;-70
2022/05/08 01:56:09;;;;;;;;;;;16.80;51.00;;;;;;2037494;28;19966;-70
2022/05/08 01:57:08;;;;;;;;;;;16.80;51.10;;;;;;2037652;28;19909;-70
2022/05/08 01:58:08;;;;;;;;;;;16.80;51.10;;;;;;2037918;28;19950;-72
2022/05/08 01:59:08;;;;;;;;;;;16.80;51.00;;;;;;2037689;28;19912;-72
2022/05/08 02:00:06;;;;;;;;;;;16.80;51.00;;;;;;2037767;28;19912;-71
2022/05/08 02:01:08;;;;;;;;;;;16.80;51.00;;;;;;2037916;28;19944;-69
2022/05/08 02:02:08;;;;;;;;;;;16.80;51.00;;;;;;2037689;28;19924;-69
2022/05/08 02:03:06;;;;;;;;;;;16.80;51.00;;;;;;2037720;28;19916;-69
2022/05/08 02:04:05;;;;;;;;;;;16.80;50.90;;;;;;2037837;28;19908;-69
2022/05/08 02:05:04;;;;;;;;;;;16.80;51.10;;;;;;2038005;28;19923;-70
2022/05/08 02:06:02;;;;;;;;;;;16.80;51.00;;;;;;2037989;28;19908;-70
2022/05/08 02:07:01;;;;;;;;;;;16.80;51.00;;;;;;2037689;28;20279;-71
2022/05/08 02:08:00;;;;;;;;;;;16.80;51.70;;;;;;2037794;28;19908;-71
2022/05/08 02:09:00;;;;;;;;;;;16.90;51.20;;;;;;2037369;28;19931;-71
2022/05/08 02:09:58;;;;;;;;;;;16.80;51.10;;;;;;2037893;28;19908;-70
2022/05/08 02:10:57;;;;;;;;;;;16.70;51.00;;;;;;2037802;28;20283;-70
2022/05/08 02:11:56;;;;;;;;;;;16.70;51.20;;;;;;2038228;28;20287;-69
2022/05/08 02:12:54;;;;;;;;;;;16.70;52.30;;;;;;2038306;28;20388;-71
2022/05/08 02:13:53;;;;;;;;;;;16.70;51.00;;;;;;2038099;28;19908;-71
2022/05/08 02:14:51;;;;;;;;;;;16.70;50.90;;;;;;2038207;28;20355;-71
2022/05/08 02:15:50;;;;;;;;;;;16.70;51.00;;;;;;2038044;28;19908;-72
2022/05/08 02:16:48;;;;;;;;;;;16.70;50.90;;;;;;2038194;28;19910;-70
2022/05/08 02:17:47;;;;;;;;;;;16.70;50.90;;;;;;2038269;28;19983;-70
2022/05/08 02:18:46;;;;;;;;;;;16.70;50.90;;;;;;2037907;28;19977;-70
2022/05/08 02:19:44;;;;;;;;;;;16.70;51.00;;;;;;2038309;28;19908;-70
2022/05/08 02:20:42;;;;;;;;;;;16.70;50.80;;;;;;2037947;28;19908;-70
2022/05/08 02:21:42;;;;;;;;;;;16.70;50.80;;;;;;2038209;28;20439;-70
2022/05/08 02:22:40;;;;;;;;;;;16.70;50.90;;;;;;2038173;28;19914;-70
2022/05/08 02:23:39;;;;;;;;;;;16.70;50.90;;;;;;2037989;28;19915;-70
2022/05/08 02:24:37;;;;;;;;;;;16.70;50.90;;;;;;2037554;28;19995;-70
2022/05/08 02:25:37;;;;;;;;;;;16.70;50.90;;;;;;2037437;28;19957;-70
2022/05/08 02:26:35;;;;;;;;;;;16.70;50.80;;;;;;2038090;28;19915;-70
2022/05/08 02:27:34;;;;;;;;;;;16.70;50.80;;;;;;2038119;28;19908;-70
2022/05/08 02:28:33;;;;;;;;;;;16.70;51.50;;;;;;2037100;28;19912;-71
2022/05/08 02:29:32;;;;;;;;;;;16.70;50.90;;;;;;2037091;28;19916;-70
2022/05/08 02:30:31;;;;;;;;;;;16.70;50.80;;;;;;2037623;28;19931;-71
2022/05/08 02:31:29;;;;;;;;;;;16.70;50.80;;;;;;2036888;28;19908;-71
2022/05/08 02:32:28;;;;;;;;;;;16.70;50.80;;;;;;2036970;28;19962;-71
2022/05/08 02:33:26;;;;;;;;;;;16.70;50.80;;;;;;2037479;28;20217;-71
2022/05/08 02:34:24;;;;;;;;;;;16.70;50.80;;;;;;2037635;28;20006;-71
2022/05/08 02:35:23;;;;;;;;;;;16.70;50.80;;;;;;2037662;28;19915;-72
2022/05/08 02:36:21;;;;;;;;;;;16.70;50.80;;;;;;2037611;28;20363;-72
2022/05/08 02:37:20;;;;;;;;;;;16.70;50.90;;;;;;2036796;28;19919;-72
2022/05/08 02:38:19;;;;;;;;;;;16.70;50.80;;;;;;2036929;28;19908;-72
2022/05/08 02:39:18;;;;;;;;;;;16.70;50.90;;;;;;2037558;28;20310;-71
2022/05/08 02:40:17;;;;;;;;;;;16.70;50.90;;;;;;2037535;28;20021;-70
2022/05/08 02:41:15;;;;;;;;;;;16.70;50.80;;;;;;2037599;28;19957;-72
2022/05/08 02:42:14;;;;;;;;;;;16.70;50.80;;;;;;2037599;28;19915;-71
2022/05/08 02:43:14;;;;;;;;;;;16.70;50.80;;;;;;2037445;28;19977;-72
2022/05/08 02:44:13;;;;;;;;;;;16.70;50.80;;;;;;2037522;28;19908;-71
2022/05/08 02:45:11;;;;;;;;;;;16.60;50.70;;;;;;2037674;28;19908;-71
2022/05/08 02:46:10;;;;;;;;;;;16.60;50.80;;;;;;2037622;28;19951;-71
2022/05/08 02:47:08;;;;;;;;;;;16.60;50.80;;;;;;2037393;28;19938;-70
2022/05/08 02:48:08;;;;;;;;;;;16.60;50.70;;;;;;2037670;28;19908;-71
2022/05/08 02:49:06;;;;;;;;;;;16.60;50.80;;;;;;2037551;28;19915;-69
2022/05/08 02:50:06;;;;;;;;;;;16.60;50.80;;;;;;2037457;28;19908;-70
2022/05/08 02:51:05;;;;;;;;;;;16.60;50.80;;;;;;2036652;28;19912;-70
2022/05/08 02:52:04;;;;;;;;;;;16.60;50.80;;;;;;2036830;28;19943;-70
2022/05/08 02:53:03;;;;;;;;;;;16.60;50.80;;;;;;2037585;28;19912;-70
2022/05/08 02:54:01;;;;;;;;;;;16.60;50.80;;;;;;2037628;28;20417;-72
2022/05/08 02:58:32;;;;;;;;;;;16.60;50.70;;;;;;2037378;28;19951;-72
2022/05/08 02:58:52;;;;;;;;;;;16.60;50.70;;;;;;2037540;28;20366;-71
2022/05/08 02:59:51;;;;;;;;;;;16.60;50.80;;;;;;2037473;28;19912;-71
2022/05/08 03:00:49;;;;;;;;;;;16.60;50.80;;;;;;2037587;28;19908;-71
2022/05/08 03:01:48;;;;;;;;;;;16.60;50.70;;;;;;2037238;28;20374;-71
2022/05/08 03:02:46;;;;;;;;;;;16.60;51.40;;;;;;2037367;28;20334;-72
2022/05/08 03:03:48;;;;;;;;;;;16.60;50.70;;;;;;2037315;28;20006;-71
2022/05/08 03:04:46;;;;;;;;;;;16.60;50.70;;;;;;2037566;28;19962;-71
2022/05/08 03:05:47;;;;;;;;;;;16.60;50.80;;;;;;2037466;28;20365;-71
2022/05/08 03:06:45;;;;;;;;;;;16.60;50.80;;;;;;2037452;28;19999;-71
2022/05/08 03:07:44;;;;;;;;;;;16.60;50.70;;;;;;2037126;28;19908;-71
2022/05/08 03:08:42;;;;;;;;;;;16.60;50.70;;;;;;2037554;28;19916;-72
2022/05/08 03:09:41;;;;;;;;;;;16.60;50.70;;;;;;2037315;28;20360;-73
2022/05/08 03:11:57;;;;;;;;;;;16.60;50.70;;;;;;2037425;28;19916;-71
2022/05/08 03:12:57;;;;;;;;;;;16.60;50.70;;;;;;2037559;28;20370;-71
2022/05/08 03:13:57;;;;;;;;;;;16.60;50.80;;;;;;2037461;28;19953;-71
2022/05/08 03:14:55;;;;;;;;;;;16.60;50.70;;;;;;2037465;28;19915;-71
2022/05/08 03:15:54;;;;;;;;;;;16.60;50.70;;;;;;2037317;28;19908;-71
2022/05/08 03:16:52;;;;;;;;;;;16.60;50.70;;;;;;2037094;28;20319;-71
2022/05/08 03:17:51;;;;;;;;;;;16.60;50.70;;;;;;2037193;28;19908;-72
2022/05/08 03:18:50;;;;;;;;;;;16.60;50.70;;;;;;2036600;28;19919;-70
2022/05/08 03:19:48;;;;;;;;;;;16.60;50.80;;;;;;2036703;28;20359;-72
2022/05/08 03:20:47;;;;;;;;;;;16.60;50.80;;;;;;2037259;28;19915;-71
2022/05/08 03:21:50;;;;;;;;;;;16.60;50.70;;;;;;2037276;28;19959;-73
2022/05/08 03:22:50;;;;;;;;;;;16.50;50.60;;;;;;2037150;28;19916;-72
2022/05/08 03:23:49;;;;;;;;;;;16.50;50.60;;;;;;2037358;28;19931;-71
2022/05/08 03:24:47;;;;;;;;;;;16.50;50.70;;;;;;2036631;28;19912;-71
2022/05/08 03:25:45;;;;;;;;;;;16.50;50.60;;;;;;2036865;28;19912;-70
2022/05/08 03:26:44;;;;;;;;;;;16.50;50.60;;;;;;2037203;28;19915;-71
2022/05/08 03:27:42;;;;;;;;;;;16.60;50.70;;;;;;2037192;28;20353;-71
2022/05/08 03:28:41;;;;;;;;;;;16.50;50.60;;;;;;2037230;28;19933;-71
2022/05/08 03:29:40;;;;;;;;;;;16.50;50.60;;;;;;2037295;28;20363;-71
2022/05/08 03:30:39;;;;;;;;;;;16.50;50.60;;;;;;2037260;28;19915;-70
2022/05/08 03:31:39;;;;;;;;;;;16.50;50.50;;;;;;2037280;28;19912;-71
2022/05/08 03:32:38;;;;;;;;;;;16.50;50.60;;;;;;2036526;28;19969;-71
2022/05/08 03:33:37;;;;;;;;;;;16.50;50.70;;;;;;2036720;28;19919;-71
2022/05/08 03:34:36;;;;;;;;;;;16.50;50.60;;;;;;2037149;28;20018;-70
2022/05/08 03:35:38;;;;;;;;;;;16.50;50.60;;;;;;2037382;28;20353;-71
2022/05/08 03:36:37;;;;;;;;;;;16.50;50.50;;;;;;2037231;28;19912;-70
2022/05/08 03:37:35;;;;;;;;;;;16.50;50.60;;;;;;2037166;28;19919;-71
2022/05/08 03:38:35;;;;;;;;;;;16.50;50.60;;;;;;2037397;28;19909;-70
2022/05/08 03:39:33;;;;;;;;;;;16.50;50.60;;;;;;2037058;28;19984;-72
2022/05/08 03:40:32;;;;;;;;;;;16.50;50.60;;;;;;2037217;28;19957;-71
2022/05/08 03:41:31;;;;;;;;;;;16.50;50.50;;;;;;2037336;28;19908;-71
2022/05/08 03:42:29;;;;;;;;;;;16.50;50.60;;;;;;2037140;28;20251;-71
2022/05/08 03:43:28;;;;;;;;;;;16.50;50.50;;;;;;2037297;28;20007;-70
2022/05/08 03:44:26;;;;;;;;;;;16.50;50.50;;;;;;2037200;28;19919;-71
2022/05/08 03:45:25;;;;;;;;;;;16.50;50.60;;;;;;2037285;28;19908;-70
2022/05/08 03:46:23;;;;;;;;;;;16.50;50.60;;;;;;2037282;28;19919;-71
2022/05/08 03:47:22;;;;;;;;;;;16.50;50.60;;;;;;2037232;28;20324;-71
2022/05/08 03:48:21;;;;;;;;;;;16.50;50.60;;;;;;2036629;28;19912;-71
2022/05/08 03:49:20;;;;;;;;;;;16.50;50.50;;;;;;2036157;28;20405;-71
2022/05/08 03:50:19;;;;;;;;;;;16.50;50.60;;;;;;2037243;28;19931;-71
2022/05/08 03:51:17;;;;;;;;;;;16.50;50.50;;;;;;2037203;28;19908;-71
2022/05/08 03:52:16;;;;;;;;;;;16.50;50.50;;;;;;2037297;28;19916;-72
2022/05/08 03:53:14;;;;;;;;;;;16.50;50.60;;;;;;2037226;28;19943;-72
2022/05/08 03:54:13;;;;;;;;;;;16.50;50.60;;;;;;2037038;28;19930;-71
2022/05/08 03:55:11;;;;;;;;;;;16.50;50.40;;;;;;2037267;28;19908;-71
2022/05/08 03:56:10;;;;;;;;;;;16.50;50.40;;;;;;2036057;28;19908;-72
2022/05/08 03:57:08;;;;;;;;;;;16.50;50.50;;;;;;2036277;28;19950;-71
2022/05/08 03:58:07;;;;;;;;;;;16.50;50.60;;;;;;2037038;28;19909;-71
2022/05/08 03:59:05;;;;;;;;;;;16.50;50.60;;;;;;2037089;28;20392;-71
2022/05/08 04:00:04;;;;;;;;;;;16.50;50.60;;;;;;2037136;28;19931;-71
2022/05/08 04:01:03;;;;;;;;;;;16.50;50.60;;;;;;2037268;28;19915;-71
2022/05/08 04:02:02;;;;;;;;;;;16.50;50.60;;;;;;2037073;28;20007;-71
2022/05/08 04:03:01;;;;;;;;;;;16.50;50.50;;;;;;2037008;28;20212;-71
2022/05/08 04:03:59;;;;;;;;;;;16.50;50.50;;;;;;2036554;28;19931;-72
2022/05/08 04:05:00;;;;;;;;;;;16.50;50.50;;;;;;2036661;28;19908;-70
2022/05/08 04:05:59;;;;;;;;;;;16.50;50.50;;;;;;2037347;28;20382;-71
2022/05/08 04:06:58;;;;;;;;;;;16.50;50.40;;;;;;2037216;28;20362;-71
2022/05/08 04:07:57;;;;;;;;;;;16.50;50.40;;;;;;2037216;28;19931;-71
2022/05/08 04:08:55;;;;;;;;;;;16.50;50.50;;;;;;2037080;28;19915;-71
2022/05/08 04:09:53;;;;;;;;;;;16.50;50.60;;;;;;2037410;28;19916;-71
2022/05/08 04:10:52;;;;;;;;;;;16.50;50.50;;;;;;2036480;28;19999;-71
2022/05/08 04:11:51;;;;;;;;;;;16.50;50.40;;;;;;2036860;28;20344;-70
2022/05/08 04:12:49;;;;;;;;;;;16.50;50.40;;;;;;2037231;28;20296;-72
2022/05/08 04:13:47;;;;;;;;;;;16.50;50.50;;;;;;2037283;28;19957;-70
2022/05/08 04:14:47;;;;;;;;;;;16.40;50.50;;;;;;2037483;28;20275;-70
2022/05/08 04:17:04;;;;;;;;;;;16.40;50.40;;;;;;2037418;28;19960;-71
2022/05/08 04:18:04;;;;;;;;;;;16.40;50.40;;;;;;2037431;28;20415;-71
2022/05/08 04:19:02;;;;;;;;;;;16.50;50.50;;;;;;2037116;28;20433;-71
2022/05/08 04:20:01;;;;;;;;;;;16.50;50.50;;;;;;2036683;28;19977;-71
2022/05/08 04:20:59;;;;;;;;;;;16.50;50.50;;;;;;2037502;28;19908;-70
2022/05/08 04:24:33;;;;;;;;;;;16.40;50.50;;;;;;2037227;28;19909;-70
2022/05/08 04:25:31;;;;;;;;;;;16.40;50.60;;;;;;2037614;28;20015;-71
2022/05/08 04:26:30;;;;;;;;;;;16.40;50.60;;;;;;2037293;28;19919;-71
2022/05/08 04:27:28;;;;;;;;;;;16.40;50.40;;;;;;2037529;28;20274;-71
2022/05/08 04:28:27;;;;;;;;;;;16.50;50.60;;;;;;2036837;28;19923;-72
2022/05/08 04:29:25;;;;;;;;;;;16.50;50.60;;;;;;2028947;28;19913;-71
2022/05/08 04:30:24;;;;;;;;;;;16.50;50.60;;;;;;2036947;28;19908;-71
2022/05/08 04:31:22;;;;;;;;;;;16.50;50.60;;;;;;2037922;28;19954;-72
2022/05/08 04:32:20;;;;;;;;;;;16.50;50.60;;;;;;2037863;28;20011;-71
2022/05/08 04:33:19;;;;;;;;;;;16.50;50.50;;;;;;2038044;28;19999;-70
2022/05/08 04:34:17;;;;;;;;;;;16.50;50.60;;;;;;2039391;28;19970;-70
2022/05/08 04:35:16;;;;;;;;;;;16.50;50.50;;;;;;2039547;28;19912;-71
2022/05/08 04:36:16;;;;;;;;;;;16.50;50.60;;;;;;2039855;28;19916;-70
2022/05/08 04:37:15;;;;;;;;;;;16.50;50.60;;;;;;2040182;28;19930;-71
2022/05/08 04:38:13;;;;;;;;;;;16.50;50.60;;;;;;2045236;28;19936;-72
2022/05/08 04:39:11;;;;;;;;;;;16.50;50.50;;;;;;2043770;28;19916;-71
2022/05/08 04:40:11;;;;;;;;;;;16.50;50.50;;;;;;2040859;28;19908;-71
2022/05/08 04:41:09;;;;;;;;;;;16.50;50.50;;;;;;2039748;28;19939;-70
2022/05/08 04:42:08;;;;;;;;;;;16.50;50.60;;;;;;2039440;28;19908;-70
2022/05/08 04:43:06;;;;;;;;;;;16.50;50.50;;;;;;2040117;28;19943;-71
2022/05/08 04:44:05;;;;;;;;;;;16.50;50.60;;;;;;2040077;28;19967;-70
2022/05/08 04:45:04;;;;;;;;;;;16.50;50.50;;;;;;2040226;28;19908;-71
2022/05/08 04:46:02;;;;;;;;;;;16.50;50.50;;;;;;2040475;28;19912;-71
2022/05/08 04:47:01;;;;;;;;;;;16.50;50.60;;;;;;2039900;28;19930;-71
2022/05/08 04:47:59;;;;;;;;;;;16.50;50.60;;;;;;2040577;28;19957;-71
2022/05/08 04:48:58;;;;;;;;;;;16.50;50.50;;;;;;2040152;28;19916;-71
2022/05/08 04:49:57;;;;;;;;;;;16.50;50.60;;;;;;2040273;28;19919;-71
2022/05/08 04:50:56;;;;;;;;;;;16.50;50.60;;;;;;2039441;28;19981;-70
2022/05/08 04:51:54;;;;;;;;;;;16.50;50.50;;;;;;2040014;28;19966;-70
2022/05/08 04:52:53;;;;;;;;;;;16.50;50.50;;;;;;2041134;28;20367;-71
2022/05/08 04:53:51;;;;;;;;;;;16.50;50.40;;;;;;2044447;28;19979;-72
2022/05/08 04:54:50;;;;;;;;;;;16.50;50.50;;;;;;2045437;28;19919;-71
2022/05/08 04:55:48;;;;;;;;;;;16.50;50.40;;;;;;2045569;28;19908;-71
2022/05/08 04:56:47;;;;;;;;;;;16.40;50.40;;;;;;2045991;28;19916;-72
2022/05/08 04:57:45;;;;;;;;;;;16.40;50.40;;;;;;2046055;28;19908;-72
2022/05/08 04:58:45;;;;;;;;;;;16.40;50.40;;;;;;2045419;28;19908;-72
2022/05/08 04:59:43;;;;;;;;;;;16.40;50.40;;;;;;2045856;28;19947;-72
2022/05/08 05:00:41;;;;;;;;;;;16.40;50.30;;;;;;2045487;28;19908;-71
2022/05/08 05:01:40;;;;;;;;;;;16.40;50.40;;;;;;2046376;28;19962;-71
2022/05/08 05:02:39;;;;;;;;;;;16.40;50.40;;;;;;2046991;28;19999;-72
2022/05/08 05:03:39;;;;;;;;;;;16.40;50.40;;;;;;2047210;28;19908;-72
2022/05/08 05:04:37;;;;;;;;;;;16.40;50.40;;;;;;2045820;28;19908;-71
2022/05/08 05:05:35;;;;;;;;;;;16.40;50.30;;;;;;2045758;28;19961;-72
2022/05/08 05:06:34;;;;;;;;;;;16.50;50.40;;;;;;2046845;28;19908;-72
2022/05/08 05:07:32;;;;;;;;;;;16.40;50.40;;;;;;2046476;28;19908;-71
2022/05/08 05:08:31;;;;;;;;;;;16.40;50.40;;;;;;2046827;28;19918;-71
2022/05/08 05:09:29;;;;;;;;;;;16.50;50.40;;;;;;2043783;28;19908;-70
2022/05/08 05:10:27;;;;;;;;;;;16.40;50.30;;;;;;2044206;28;19975;-72
2022/05/08 05:11:26;;;;;;;;;;;16.40;50.40;;;;;;2047553;28;19919;-71
2022/05/08 05:12:24;;;;;;;;;;;16.50;50.40;;;;;;2047662;28;19924;-72
2022/05/08 05:13:23;;;;;;;;;;;16.40;50.30;;;;;;2047368;28;19922;-71
2022/05/08 05:14:21;;;;;;;;;;;16.40;50.30;;;;;;2046864;28;20122;-71
2022/05/08 05:15:20;;;;;;;;;;;16.50;50.40;;;;;;2047119;28;19921;-71
2022/05/08 05:16:18;;;;;;;;;;;16.40;50.40;;;;;;2046931;28;19908;-72
2022/05/08 05:17:17;;;;;;;;;;;16.40;50.40;;;;;;2046510;28;19955;-71
2022/05/08 05:18:16;;;;;;;;;;;16.50;50.50;;;;;;2046789;28;19968;-71
2022/05/08 05:19:15;;;;;;;;;;;16.50;50.40;;;;;;2046728;28;19954;-71
2022/05/08 05:20:13;;;;;;;;;;;16.40;50.30;;;;;;2046765;28;19919;-70
2022/05/08 05:21:12;;;;;;;;;;;16.40;50.30;;;;;;2047071;28;19908;-71
2022/05/08 05:22:10;;;;;;;;;;;16.40;50.30;;;;;;2045923;28;19962;-71
2022/05/08 05:23:09;;;;;;;;;;;16.40;50.40;;;;;;2046015;28;20050;-71
2022/05/08 05:24:07;;;;;;;;;;;16.40;50.30;;;;;;2046113;28;19968;-70
2022/05/08 05:25:06;;;;;;;;;;;16.40;50.30;;;;;;2045686;28;19985;-72
2022/05/08 05:26:04;;;;;;;;;;;16.40;50.40;;;;;;2045541;28;19908;-72
2022/05/08 05:27:04;;;;;;;;;;;16.40;50.30;;;;;;2041931;28;20351;-72
2022/05/08 05:28:02;;;;;;;;;;;16.50;50.40;;;;;;2045720;28;19954;-71
2022/05/08 05:29:02;;;;;;;;;;;16.40;50.30;;;;;;2047217;28;19922;-71
2022/05/08 05:30:03;;;;;;;;;;;16.40;50.30;;;;;;2047363;28;19908;-72
2022/05/08 05:31:01;;;;;;;;;;;16.50;50.30;;;;;;2047539;28;19922;-71
2022/05/08 05:32:01;;;;;;;;;;;16.40;50.10;;;;;;2046597;28;19923;-70
2022/05/08 05:32:59;;;;;;;;;;;16.40;50.30;;;;;;2046631;28;19909;-71
2022/05/08 05:33:58;;;;;;;;;;;16.40;50.20;;;;;;2047009;28;19897;-73
2022/05/08 05:34:56;;;;;;;;;;;16.40;50.30;;;;;;2047046;28;19911;-72
2022/05/08 05:35:55;;;;;;;;;;;16.40;50.20;;;;;;2046956;28;19918;-71
2022/05/08 05:36:53;;;;;;;;;;;16.40;50.30;;;;;;2046707;28;19918;-72
2022/05/08 05:37:53;;;;;;;;;;;16.40;50.00;;;;;;2046568;28;19908;-72
2022/05/08 05:38:51;;;;;;;;;;;16.40;50.10;;;;;;2046679;28;19927;-72
2022/05/08 05:39:50;;;;;;;;;;;16.40;50.20;;;;;;2046567;28;19971;-72
2022/05/08 05:40:48;;;;;;;;;;;16.40;50.30;;;;;;2046413;28;19896;-71
2022/05/08 05:41:46;;;;;;;;;;;16.40;50.20;;;;;;2045825;28;19908;-72
2022/05/08 05:42:45;;;;;;;;;;;16.40;50.30;;;;;;2045784;28;19919;-72
2022/05/08 05:43:43;;;;;;;;;;;16.40;50.30;;;;;;2045283;28;19975;-72
2022/05/08 05:44:42;;;;;;;;;;;16.40;50.50;;;;;;2040463;28;19910;-70
2022/05/08 05:45:40;;;;;;;;;;;16.50;50.20;;;;;;2038010;28;20270;-71
2022/05/08 05:47:59;;;;;;;;;;;16.40;50.10;;;;;;2037901;28;20011;-72
2022/05/08 05:48:57;;;;;;;;;;;16.40;50.10;;;;;;2037952;28;19908;-71
2022/05/08 05:49:56;;;;;;;;;;;16.40;50.10;;;;;;2037880;28;19919;-72
2022/05/08 05:50:54;;;;;;;;;;;16.40;50.10;;;;;;2037742;28;20379;-72
2022/05/08 05:51:56;;;;;;;;;;;16.40;50.10;;;;;;2037876;28;19908;-74
2022/05/08 05:52:54;;;;;;;;;;;16.40;50.10;;;;;;2037848;28;19908;-72